createdAt,value
2023-01-10T00:01:39.850Z,1.50
2023-01-10T00:04:06.899Z,1.60
2023-01-10T00:06:37.040Z,1.63
2023-01-10T00:09:07.201Z,1.40
2023-01-10T00:11:52.612Z,1.48
2023-01-10T00:14:29.014Z,1.40
2023-01-10T00:16:57.702Z,1.20
2023-01-10T00:19:25.265Z,1.42
2023-01-10T00:21:52.775Z,1.58
2023-01-10T00:24:20.915Z,1.58
2023-01-10T00:26:56.252Z,1.20
2023-01-10T00:29:32.132Z,1.25
2023-01-10T00:38:46.667Z,1.10
2023-01-10T00:41:35.649Z,1.45
2023-01-10T00:44:06.814Z,1.67
2023-01-10T00:46:34.378Z,1.20
2023-01-10T00:49:02.150Z,1.77
2023-01-10T00:51:31.055Z,1.50
2023-01-10T00:53:58.822Z,1.15
2023-01-10T00:56:26.287Z,1.25
2023-01-10T00:58:53.626Z,1.60
2023-01-10T01:01:21.027Z,1.88
2023-01-10T01:03:48.217Z,2.25
2023-01-10T01:06:16.285Z,2.13
2023-01-10T01:08:43.330Z,1.97
2023-01-10T01:11:13.135Z,2.13
2023-01-10T01:13:42.496Z,1.63
2023-01-10T01:16:10.084Z,2.05
2023-01-10T01:18:37.173Z,1.83
2023-01-10T01:21:08.596Z,1.75
2023-01-10T01:23:36.119Z,1.70
2023-01-10T01:26:05.995Z,1.70
2023-01-10T01:28:33.688Z,1.92
2023-01-10T01:31:10.611Z,1.77
2023-01-10T01:33:37.933Z,2.13
2023-01-10T01:36:10.106Z,2.53
2023-01-10T01:38:41.025Z,3.17
2023-01-10T01:41:32.025Z,3.22
2023-01-10T01:44:07.631Z,3.40
2023-01-10T01:46:37.686Z,3.30
2023-01-10T01:49:12.566Z,4.15
2023-01-10T01:54:12.174Z,4.20
2023-01-10T01:56:46.533Z,3.38
2023-01-10T01:59:22.088Z,3.90
2023-01-10T02:02:10.586Z,4.47
2023-01-10T02:04:57.626Z,4.80
2023-01-10T02:07:26.412Z,4.13
2023-01-10T02:10:05.265Z,5.40
2023-01-10T02:12:33.343Z,3.78
2023-01-10T02:15:01.068Z,4.45
2023-01-10T02:17:28.114Z,5.03
2023-01-10T02:20:03.441Z,5.07
2023-01-10T02:23:10.327Z,4.95
2023-01-10T02:26:19.597Z,4.00
2023-01-10T02:29:21.853Z,4.22
2023-01-10T02:31:48.766Z,3.60
2023-01-10T02:37:38.079Z,4.65
2023-01-10T02:40:19.600Z,4.90
2023-01-10T02:42:54.001Z,4.47
2023-01-10T02:45:52.570Z,4.57
2023-01-10T02:48:19.596Z,4.07
2023-01-10T02:51:19.265Z,4.47
2023-01-10T02:53:56.792Z,4.50
2023-01-10T02:56:54.535Z,5.10
2023-01-10T02:59:43.200Z,5.07
2023-01-10T03:02:16.240Z,5.18
2023-01-10T03:04:53.668Z,4.15
2023-01-10T03:07:27.633Z,4.75
2023-01-10T03:10:01.866Z,5.03
2023-01-10T03:12:31.694Z,5.05
2023-01-10T03:15:00.869Z,4.38
2023-01-10T03:17:33.580Z,4.97
2023-01-10T03:20:05.498Z,4.80
2023-01-10T03:22:36.273Z,4.43
2023-01-10T03:25:07.319Z,4.30
2023-01-10T03:27:40.179Z,4.78
2023-01-10T03:30:34.234Z,4.85
2023-01-10T03:33:01.701Z,3.63
2023-01-10T03:35:54.650Z,4.07
2023-01-10T03:38:26.218Z,4.80
2023-01-10T03:41:02.167Z,5.30
2023-01-10T03:44:14.079Z,4.55
2023-01-10T03:46:52.759Z,4.93
2023-01-10T03:49:23.377Z,4.32
2023-01-10T03:51:50.989Z,4.55
2023-01-10T03:54:18.153Z,4.53
2023-01-10T03:56:50.108Z,3.97
2023-01-10T03:59:23.491Z,3.78
2023-01-10T04:01:51.090Z,4.30
2023-01-10T04:04:25.627Z,3.92
2023-01-10T04:06:52.534Z,4.38
2023-01-10T04:09:25.593Z,3.78
2023-01-10T04:11:56.283Z,4.10
2023-01-10T04:14:23.341Z,3.92
2023-01-10T04:16:50.376Z,4.63
2023-01-10T04:19:17.367Z,3.38
2023-01-10T04:21:44.451Z,4.43
2023-01-10T04:24:11.463Z,4.25
2023-01-10T04:26:38.466Z,3.75
2023-01-10T04:29:10.923Z,5.47
2023-01-10T04:31:40.734Z,4.20
2023-01-10T04:34:08.923Z,5.10
2023-01-10T04:36:36.737Z,4.82
2023-01-10T04:39:04.926Z,4.32
2023-01-10T04:41:40.010Z,4.63
2023-01-10T04:44:10.230Z,3.75
2023-01-10T04:46:37.193Z,3.53
2023-01-10T04:49:04.530Z,4.60
2023-01-10T04:51:31.585Z,4.10
2023-01-10T04:53:58.527Z,3.35
2023-01-10T04:56:25.932Z,3.20
2023-01-10T04:58:54.094Z,3.78
2023-01-10T05:01:24.155Z,3.90
2023-01-10T05:03:53.658Z,3.05
2023-01-10T05:06:22.153Z,4.18
2023-01-10T05:08:49.263Z,3.50
2023-01-10T05:11:16.461Z,3.47
2023-01-10T05:13:43.515Z,2.80
2023-01-10T05:16:10.560Z,3.47
2023-01-10T05:18:37.601Z,3.55
2023-01-10T05:21:08.022Z,3.17
2023-01-10T05:23:35.835Z,3.42
2023-01-10T05:26:11.072Z,3.47
2023-01-10T05:28:38.466Z,3.72
2023-01-10T05:31:13.415Z,3.08
2023-01-10T05:33:43.872Z,3.63
2023-01-10T05:36:10.887Z,3.65
2023-01-10T05:38:37.968Z,3.38
2023-01-10T05:41:05.195Z,3.92
2023-01-10T05:43:32.533Z,3.70
2023-01-10T05:45:59.564Z,3.53
2023-01-10T05:48:26.587Z,3.10
2023-01-10T05:50:53.541Z,3.20
2023-01-10T05:53:20.629Z,3.30
2023-01-10T05:55:59.016Z,3.53
2023-01-10T05:58:27.908Z,3.60
2023-01-10T06:00:56.247Z,2.95
2023-01-10T06:03:23.640Z,3.60
2023-01-10T06:05:50.645Z,3.33
2023-01-10T06:08:17.658Z,3.15
2023-01-10T06:10:44.839Z,3.05
2023-01-10T06:13:12.434Z,3.30
2023-01-10T06:15:39.766Z,2.80
2023-01-10T06:18:07.322Z,2.83
2023-01-10T06:20:34.245Z,2.35
2023-01-10T06:23:04.710Z,2.42
2023-01-10T06:25:42.640Z,2.15
2023-01-10T06:28:10.857Z,3.05
2023-01-10T06:30:38.730Z,2.30
2023-01-10T06:33:08.800Z,2.20
2023-01-10T06:35:36.493Z,2.33
2023-01-10T06:38:04.641Z,2.45
2023-01-10T06:40:31.969Z,2.35
2023-01-10T06:42:59.357Z,2.15
2023-01-10T06:45:26.351Z,2.20
2023-01-10T06:47:53.586Z,2.30
2023-01-10T06:50:20.586Z,2.22
2023-01-10T06:53:04.854Z,2.42
2023-01-10T06:55:32.146Z,2.40
2023-01-10T06:58:04.751Z,2.40
2023-01-10T07:00:32.495Z,2.00
2023-01-10T07:03:00.793Z,2.15
2023-01-10T07:05:29.812Z,2.38
2023-01-10T07:07:58.831Z,2.20
2023-01-10T07:10:25.956Z,2.50
2023-01-10T07:12:55.468Z,2.28
2023-01-10T07:15:22.617Z,3.03
2023-01-10T07:17:49.649Z,2.60
2023-01-10T07:20:17.067Z,2.58
2023-01-10T07:22:44.110Z,2.35
2023-01-10T07:25:11.088Z,3.08
2023-01-10T07:27:40.064Z,2.72
2023-01-10T07:30:07.954Z,2.22
2023-01-10T07:32:35.241Z,2.45
2023-01-10T07:35:02.536Z,2.63
2023-01-10T07:37:29.515Z,2.72
2023-01-10T07:39:56.514Z,2.90
2023-01-10T07:42:24.089Z,3.28
2023-01-10T07:44:51.017Z,3.15
2023-01-10T07:47:18.184Z,2.65
2023-01-10T07:49:45.107Z,3.10
2023-01-10T07:52:12.015Z,3.58
2023-01-10T07:54:39.031Z,3.35
2023-01-10T07:57:05.970Z,3.10
2023-01-10T07:59:32.906Z,3.28
2023-01-10T08:01:59.803Z,4.20
2023-01-10T08:04:27.314Z,3.08
2023-01-10T08:06:55.424Z,3.33
2023-01-10T08:09:22.424Z,3.42
2023-01-10T08:11:49.472Z,3.45
2023-01-10T08:14:16.404Z,3.03
2023-01-10T08:16:43.356Z,3.95
2023-01-10T08:19:12.616Z,2.80
2023-01-10T08:21:39.781Z,3.00
2023-01-10T08:24:07.301Z,3.30
2023-01-10T08:26:34.469Z,4.53
2023-01-10T08:29:01.859Z,3.20
2023-01-10T08:31:28.934Z,4.25
2023-01-10T08:33:57.058Z,3.88
2023-01-10T08:36:24.457Z,3.33
2023-01-10T08:38:54.875Z,3.88
2023-01-10T08:41:21.883Z,3.70
2023-01-10T08:43:52.042Z,3.47
2023-01-10T08:46:20.576Z,4.13
2023-01-10T08:48:50.455Z,4.25
2023-01-10T08:51:18.177Z,3.83
2023-01-10T08:53:45.514Z,4.22
2023-01-10T08:56:12.517Z,4.30
2023-01-10T08:58:39.552Z,4.72
2023-01-10T09:01:12.009Z,5.05
2023-01-10T09:03:39.983Z,3.97
2023-01-10T09:06:08.381Z,3.80
2023-01-10T09:08:36.144Z,3.22
2023-01-10T09:11:03.680Z,4.13
2023-01-10T09:13:31.173Z,3.40
2023-01-10T09:15:58.518Z,3.20
2023-01-10T09:18:26.391Z,3.03
2023-01-10T09:20:53.715Z,2.95
2023-01-10T09:23:22.590Z,2.80
2023-01-10T09:25:52.375Z,3.20
2023-01-10T09:28:20.529Z,2.60
2023-01-10T09:30:48.025Z,2.92
2023-01-10T09:33:15.487Z,3.45
2023-01-10T09:35:43.405Z,3.67
2023-01-10T09:38:14.795Z,2.92
2023-01-10T09:41:00.435Z,4.32
2023-01-10T09:44:04.770Z,2.75
2023-01-10T09:46:34.986Z,2.13
2023-01-10T09:49:20.600Z,2.40
2023-01-10T09:51:52.582Z,3.30
2023-01-10T09:54:37.946Z,3.08
2023-01-10T09:57:05.043Z,2.78
2023-01-10T09:59:43.062Z,2.65
2023-01-10T10:02:36.835Z,2.80
2023-01-10T10:05:21.680Z,2.53
2023-01-10T10:07:54.599Z,2.03
2023-01-10T10:10:43.715Z,3.55
2023-01-10T10:13:28.973Z,2.50
2023-01-10T10:16:15.241Z,2.55
2023-01-10T10:19:02.187Z,2.17
2023-01-10T10:21:48.240Z,1.83
2023-01-10T10:24:30.355Z,2.35
2023-01-10T10:27:09.419Z,2.28
2023-01-10T10:29:46.493Z,2.10
2023-01-10T10:32:25.449Z,2.28
2023-01-10T10:35:08.354Z,1.80
2023-01-10T10:37:45.971Z,2.22
2023-01-10T10:40:18.973Z,2.17
2023-01-10T10:42:50.663Z,1.58
2023-01-10T10:45:20.032Z,1.90
2023-01-10T10:48:01.501Z,1.70
2023-01-10T10:50:34.909Z,1.90
2023-01-10T10:53:06.072Z,2.60
2023-01-10T10:55:37.951Z,2.00
2023-01-10T10:58:07.773Z,1.95
2023-01-10T11:00:35.011Z,1.63
2023-01-10T11:03:27.354Z,1.90
2023-01-10T11:05:55.442Z,2.83
2023-01-10T11:08:23.672Z,2.88
2023-01-10T11:10:55.437Z,1.85
2023-01-10T11:13:34.393Z,2.13
2023-01-10T11:16:04.776Z,2.33
2023-01-10T11:18:33.610Z,2.22
2023-01-10T11:21:04.910Z,2.20
2023-01-10T11:23:43.740Z,2.53
2023-01-10T11:26:25.493Z,2.80
2023-01-10T11:29:18.839Z,2.50
2023-01-10T11:31:47.533Z,2.72
2023-01-10T11:34:30.224Z,2.53
2023-01-10T11:37:04.809Z,2.47
2023-01-10T11:39:32.883Z,2.30
2023-01-10T11:42:25.695Z,2.10
2023-01-10T11:44:52.750Z,1.90
2023-01-10T11:47:21.112Z,3.70
2023-01-10T11:49:50.334Z,3.40
2023-01-10T11:52:17.223Z,2.72
2023-01-10T11:54:44.686Z,2.88
2023-01-10T11:57:22.770Z,2.30
2023-01-10T12:00:17.651Z,2.47
2023-01-10T12:02:45.127Z,2.72
2023-01-10T12:05:23.726Z,2.30
2023-01-10T12:08:06.991Z,2.95
2023-01-10T12:10:35.285Z,2.72
2023-01-10T12:13:15.244Z,3.05
2023-01-10T12:15:42.584Z,2.55
2023-01-10T12:18:12.304Z,2.22
2023-01-10T12:20:52.136Z,1.92
2023-01-10T12:23:22.096Z,3.17
2023-01-10T12:25:51.507Z,2.60
2023-01-10T12:28:27.772Z,2.78
2023-01-10T12:30:58.256Z,2.92
2023-01-10T12:33:29.646Z,2.80
2023-01-10T12:36:13.617Z,2.72
2023-01-10T12:39:04.613Z,2.38
2023-01-10T12:42:00.990Z,2.88
2023-01-10T12:44:44.335Z,3.58
2023-01-10T12:47:23.637Z,2.33
2023-01-10T12:50:03.333Z,2.40
2023-01-10T12:52:36.283Z,2.70
2023-01-10T12:55:03.839Z,2.78
2023-01-10T12:57:36.142Z,2.45
2023-01-10T13:00:08.015Z,2.80
2023-01-10T13:02:44.055Z,2.50
2023-01-10T13:05:23.807Z,2.85
2023-01-10T13:07:54.737Z,2.80
2023-01-10T13:10:24.747Z,3.10
2023-01-10T13:13:20.677Z,2.53
2023-01-10T13:16:09.224Z,2.38
2023-01-10T13:18:36.230Z,2.95
2023-01-10T13:21:14.565Z,2.45
2023-01-10T13:23:58.136Z,2.70
2023-01-10T13:26:25.367Z,2.95
2023-01-10T13:28:58.520Z,3.15
2023-01-10T13:31:35.341Z,3.97
2023-01-10T13:34:13.541Z,2.95
2023-01-10T13:36:43.741Z,3.28
2023-01-10T13:39:38.640Z,2.67
2023-01-10T13:42:24.831Z,2.90
2023-01-10T13:45:01.502Z,2.85
2023-01-10T13:47:40.768Z,2.75
2023-01-10T13:50:23.098Z,3.03
2023-01-10T13:52:51.581Z,2.25
2023-01-10T13:55:26.347Z,2.80
2023-01-10T13:57:56.391Z,2.42
2023-01-10T14:01:03.968Z,2.20
2023-01-10T14:03:44.688Z,2.83
2023-01-10T14:06:21.817Z,2.28
2023-01-10T14:08:54.566Z,1.92
2023-01-10T14:11:25.196Z,2.72
2023-01-10T14:13:55.713Z,2.35
2023-01-10T14:16:36.859Z,2.28
2023-01-10T14:19:08.223Z,2.15
2023-01-10T14:21:45.489Z,2.22
2023-01-10T14:24:50.425Z,1.88
2023-01-10T14:27:19.729Z,1.40
2023-01-10T14:29:53.693Z,1.95
2023-01-10T14:32:51.095Z,1.77
2023-01-10T14:35:24.842Z,2.15
2023-01-10T14:37:59.163Z,1.70
2023-01-10T14:40:31.086Z,1.58
2023-01-10T14:43:04.070Z,1.60
2023-01-10T14:45:37.005Z,1.60
2023-01-10T14:48:22.966Z,1.85
2023-01-10T14:50:49.858Z,1.70
2023-01-10T14:53:36.989Z,1.70
2023-01-10T14:56:03.988Z,2.15
2023-01-10T14:58:31.088Z,1.90
2023-01-10T15:00:58.631Z,2.22
2023-01-10T15:03:25.947Z,1.48
2023-01-10T15:05:56.853Z,2.20
2023-01-10T15:08:31.893Z,1.40
2023-01-10T15:11:08.216Z,2.22
2023-01-10T15:13:57.952Z,1.52
2023-01-10T15:16:28.191Z,30.25
2023-01-10T15:18:56.816Z,3.33
2023-01-10T15:21:25.777Z,2.03
2023-01-10T15:23:52.891Z,1.60
2023-01-10T15:26:25.986Z,1.83
2023-01-10T15:29:23.606Z,1.75
2023-01-10T15:31:53.595Z,1.58
2023-01-10T15:34:26.272Z,1.60
2023-01-10T15:36:56.278Z,1.80
2023-01-10T15:39:27.452Z,2.13
2023-01-10T15:42:01.352Z,1.80
2023-01-10T15:44:40.986Z,2.13
2023-01-10T15:47:33.747Z,1.88
2023-01-10T15:50:02.827Z,2.40
2023-01-10T15:52:59.067Z,2.50
2023-01-10T15:55:45.796Z,1.95
2023-01-10T15:58:30.167Z,2.58
2023-01-10T16:01:03.918Z,1.50
2023-01-10T16:07:27.696Z,2.20
2023-01-10T16:10:08.634Z,2.40
2023-01-10T16:16:19.336Z,2.35
2023-01-10T16:22:08.322Z,1.92
2023-01-10T16:24:36.487Z,2.25
2023-01-10T16:27:06.550Z,2.65
2023-01-10T16:29:34.370Z,2.83
2023-01-10T16:32:16.284Z,2.38
2023-01-10T16:34:44.073Z,7.82
2023-01-10T16:37:11.049Z,3.22
2023-01-10T16:39:37.991Z,3.05
2023-01-10T16:42:23.570Z,3.80
2023-01-10T16:44:50.495Z,3.55
2023-01-10T16:47:17.394Z,3.42
2023-01-10T16:49:45.533Z,2.92
2023-01-10T16:52:14.828Z,2.92
2023-01-10T16:54:41.844Z,3.67
2023-01-10T16:57:11.464Z,3.60
2023-01-10T16:59:39.581Z,2.80
2023-01-10T17:02:17.886Z,3.63
2023-01-10T17:04:45.158Z,8.82
2023-01-10T17:07:12.719Z,3.38
2023-01-10T17:09:39.836Z,3.33
2023-01-10T17:12:13.638Z,3.70
2023-01-10T17:14:40.655Z,3.80
2023-01-10T17:17:07.543Z,3.55
2023-01-10T17:19:34.610Z,3.10
2023-01-10T17:22:01.516Z,3.67
2023-01-10T17:24:30.025Z,3.38
2023-01-10T17:26:57.422Z,3.78
2023-01-10T17:29:24.404Z,3.72
2023-01-10T17:31:51.469Z,4.18
2023-01-10T17:34:18.609Z,3.42
2023-01-10T17:36:45.488Z,3.40
2023-01-10T17:39:12.475Z,3.60
2023-01-10T17:41:39.666Z,3.17
2023-01-10T17:44:06.616Z,3.55
2023-01-10T17:46:33.918Z,3.55
2023-01-10T17:49:02.651Z,3.47
2023-01-10T17:51:29.626Z,2.90
2023-01-10T17:53:56.762Z,3.17
2023-01-10T17:56:24.686Z,2.83
2023-01-10T17:58:53.091Z,2.72
2023-01-10T18:01:25.183Z,2.78
2023-01-10T18:03:53.437Z,3.03
2023-01-10T18:06:25.070Z,3.63
2023-01-10T18:08:53.429Z,7.07
2023-01-10T18:11:21.565Z,3.58
2023-01-10T18:13:48.494Z,2.83
2023-01-10T18:16:15.495Z,3.83
2023-01-10T18:18:42.480Z,3.22
2023-01-10T18:21:14.622Z,3.83
2023-01-10T18:23:42.002Z,2.88
2023-01-10T18:26:11.599Z,3.08
2023-01-10T18:28:43.305Z,3.25
2023-01-10T18:31:16.781Z,3.25
2023-01-10T18:33:45.893Z,3.67
2023-01-10T18:36:16.185Z,3.33
2023-01-10T18:38:43.764Z,3.15
2023-01-10T18:41:11.608Z,3.30
2023-01-10T18:43:38.762Z,3.50
2023-01-10T18:46:12.939Z,4.00
2023-01-10T18:48:40.481Z,3.67
2023-01-10T18:51:09.109Z,3.78
2023-01-10T18:53:36.321Z,3.10
2023-01-10T18:56:04.890Z,5.28
2023-01-10T18:58:40.485Z,3.85
2023-01-10T19:01:19.766Z,3.47
2023-01-10T19:03:47.450Z,3.85
2023-01-10T19:06:16.939Z,3.90
2023-01-10T19:08:46.020Z,4.10
2023-01-10T19:11:16.033Z,3.97
2023-01-10T19:13:49.521Z,3.22
2023-01-10T19:16:20.678Z,4.03
2023-01-10T19:18:58.794Z,4.15
2023-01-10T19:21:27.294Z,4.65
2023-01-10T19:23:55.946Z,4.30
2023-01-10T19:26:24.392Z,4.97
2023-01-10T19:28:51.822Z,4.95
2023-01-10T19:31:24.234Z,5.40
2023-01-10T19:33:51.699Z,5.30
2023-01-10T19:36:20.501Z,7.93
2023-01-10T19:38:48.019Z,5.38
2023-01-10T19:41:16.452Z,4.82
2023-01-10T19:43:43.537Z,5.10
2023-01-10T19:46:13.016Z,4.55
2023-01-10T19:48:40.043Z,5.22
2023-01-10T19:51:12.596Z,5.50
2023-01-10T19:53:42.381Z,6.32
2023-01-10T19:56:10.078Z,6.55
2023-01-10T19:58:38.527Z,5.72
2023-01-10T20:01:12.410Z,6.43
2023-01-10T20:03:42.455Z,6.40
2023-01-10T20:06:14.123Z,5.68
2023-01-10T20:08:41.552Z,6.05
2023-01-10T20:11:08.883Z,5.55
2023-01-10T20:13:38.546Z,5.75
2023-01-10T20:16:06.590Z,5.78
2023-01-10T20:18:33.657Z,6.05
2023-01-10T20:21:06.998Z,6.28
2023-01-10T20:23:36.367Z,6.30
2023-01-10T20:26:06.756Z,6.88
2023-01-10T20:28:34.605Z,6.35
2023-01-10T20:31:02.207Z,7.45
2023-01-10T20:33:34.252Z,7.15
2023-01-10T20:36:04.370Z,8.07
2023-01-10T20:38:33.963Z,7.47
2023-01-10T20:41:07.827Z,7.97
2023-01-10T20:43:40.571Z,7.80
2023-01-10T20:46:17.179Z,8.00
2023-01-10T20:48:48.066Z,8.07
2023-01-10T20:51:22.447Z,6.72
2023-01-10T20:53:51.285Z,7.47
2023-01-10T20:56:21.739Z,7.90
2023-01-10T20:58:51.562Z,7.65
2023-01-10T21:01:33.607Z,6.88
2023-01-10T21:04:02.574Z,8.23
2023-01-10T21:06:29.713Z,7.85
2023-01-10T21:08:57.304Z,9.38
2023-01-10T21:11:25.083Z,7.70
2023-01-10T21:13:52.522Z,8.50
2023-01-10T21:16:22.329Z,8.15
2023-01-10T21:18:50.723Z,7.20
2023-01-10T21:21:22.578Z,8.15
2023-01-10T21:23:50.057Z,7.90
2023-01-10T21:26:17.324Z,8.38
2023-01-10T21:28:49.010Z,8.38
2023-01-10T21:31:18.760Z,8.32
2023-01-10T21:33:46.099Z,8.38
2023-01-10T21:36:14.503Z,9.00
2023-01-10T21:38:41.900Z,8.13
2023-01-10T21:41:38.854Z,8.23
2023-01-10T21:44:07.579Z,8.27
2023-01-10T21:46:35.492Z,8.40
2023-01-10T21:49:03.593Z,9.75
2023-01-10T21:51:30.546Z,8.68
2023-01-10T21:53:57.906Z,9.25
2023-01-10T21:56:25.090Z,8.23
2023-01-10T21:58:52.427Z,8.60
2023-01-10T22:01:19.501Z,9.82
2023-01-10T22:03:46.680Z,9.30
2023-01-10T22:06:14.015Z,9.20
2023-01-10T22:08:41.569Z,9.80
2023-01-10T22:11:10.916Z,8.80
2023-01-10T22:13:38.656Z,9.40
2023-01-10T22:16:07.106Z,9.93
2023-01-10T22:18:34.343Z,8.68
2023-01-10T22:21:03.646Z,9.30
2023-01-10T22:23:34.738Z,8.80
2023-01-10T22:26:07.144Z,9.32
2023-01-10T22:28:34.453Z,9.40
2023-01-10T22:31:01.931Z,9.02
2023-01-10T22:33:44.850Z,9.52
2023-01-10T22:36:17.353Z,8.38
2023-01-10T22:38:46.823Z,8.93
2023-01-10T22:41:17.098Z,8.82
2023-01-10T22:43:52.182Z,9.23
2023-01-10T22:46:19.438Z,8.73
2023-01-10T22:48:46.572Z,8.43
2023-01-10T22:51:15.058Z,9.82
2023-01-10T22:53:42.288Z,9.30
2023-01-10T22:56:11.377Z,9.65
2023-01-10T22:58:38.473Z,8.13
2023-01-10T23:01:07.032Z,9.57
2023-01-10T23:03:34.630Z,9.35
2023-01-10T23:06:01.585Z,8.82
2023-01-10T23:08:28.608Z,9.18
2023-01-10T23:10:55.491Z,9.10
2023-01-10T23:13:23.216Z,9.40
2023-01-10T23:16:28.610Z,9.77
2023-01-10T23:18:57.628Z,9.55
2023-01-10T23:21:25.562Z,8.65
2023-01-10T23:23:52.454Z,8.57
2023-01-10T23:26:19.497Z,9.40
2023-01-10T23:28:49.263Z,8.20
2023-01-10T23:31:24.309Z,8.15
2023-01-10T23:33:52.363Z,7.20
2023-01-10T23:36:19.751Z,7.28
2023-01-10T23:38:48.041Z,8.65
2023-01-10T23:41:15.088Z,7.43
2023-01-10T23:43:42.786Z,7.45
2023-01-10T23:46:09.820Z,7.60
2023-01-10T23:48:36.782Z,7.70
2023-01-10T23:51:03.836Z,7.55
2023-01-10T23:53:30.721Z,7.40
2023-01-10T23:55:58.210Z,7.68
2023-01-10T23:58:25.800Z,7.60
